sensor_id;sensor_type;location;lat;lon;timestamp;P1;durP1;ratioP1;P2;durP2;ratioP2
77724;SDS011;66892;53.236;6.550;2023-03-01T00:00:24;1.95;;;1.30;;
77724;SDS011;66892;53.236;6.550;2023-03-01T00:02:50;2.42;;;1.52;;
77724;SDS011;66892;53.236;6.550;2023-03-01T00:05:16;2.30;;;1.30;;
77724;SDS011;66892;53.236;6.550;2023-03-01T00:07:42;2.25;;;1.38;;
77724;SDS011;66892;53.236;6.550;2023-03-01T00:10:11;1.77;;;1.20;;
77724;SDS011;66892;53.236;6.550;2023-03-01T00:12:37;2.20;;;1.30;;
77724;SDS011;66892;53.236;6.550;2023-03-01T00:15:03;2.15;;;1.33;;
77724;SDS011;66892;53.236;6.550;2023-03-01T00:17:30;1.90;;;1.30;;
77724;SDS011;66892;53.236;6.550;2023-03-01T00:19:56;1.83;;;1.23;;
77724;SDS011;66892;53.236;6.550;2023-03-01T00:22:22;1.98;;;1.30;;
77724;SDS011;66892;53.236;6.550;2023-03-01T00:24:48;1.92;;;1.27;;
77724;SDS011;66892;53.236;6.550;2023-03-01T00:27:16;1.65;;;1.17;;
77724;SDS011;66892;53.236;6.550;2023-03-01T00:29:42;2.10;;;1.50;;
77724;SDS011;66892;53.236;6.550;2023-03-01T00:32:08;1.88;;;1.30;;
77724;SDS011;66892;53.236;6.550;2023-03-01T00:34:34;2.00;;;1.40;;
77724;SDS011;66892;53.236;6.550;2023-03-01T00:37:00;1.92;;;1.40;;
77724;SDS011;66892;53.236;6.550;2023-03-01T00:39:30;2.13;;;1.40;;
77724;SDS011;66892;53.236;6.550;2023-03-01T00:41:57;1.88;;;1.33;;
77724;SDS011;66892;53.236;6.550;2023-03-01T00:44:25;1.98;;;1.15;;
77724;SDS011;66892;53.236;6.550;2023-03-01T00:46:51;2.50;;;1.45;;
77724;SDS011;66892;53.236;6.550;2023-03-01T00:49:17;1.73;;;1.20;;
77724;SDS011;66892;53.236;6.550;2023-03-01T00:51:43;2.20;;;1.45;;
77724;SDS011;66892;53.236;6.550;2023-03-01T00:54:09;2.00;;;1.20;;
77724;SDS011;66892;53.236;6.550;2023-03-01T00:56:35;1.92;;;1.20;;
77724;SDS011;66892;53.236;6.550;2023-03-01T00:59:01;1.83;;;1.15;;
77724;SDS011;66892;53.236;6.550;2023-03-01T01:01:29;1.95;;;1.20;;
77724;SDS011;66892;53.236;6.550;2023-03-01T01:03:57;2.15;;;1.45;;
77724;SDS011;66892;53.236;6.550;2023-03-01T01:06:25;1.73;;;1.10;;
77724;SDS011;66892;53.236;6.550;2023-03-01T01:08:52;2.30;;;1.65;;
77724;SDS011;66892;53.236;6.550;2023-03-01T01:11:19;1.88;;;1.33;;
77724;SDS011;66892;53.236;6.550;2023-03-01T01:13:46;2.17;;;1.50;;
77724;SDS011;66892;53.236;6.550;2023-03-01T01:16:13;2.08;;;1.50;;
77724;SDS011;66892;53.236;6.550;2023-03-01T01:18:41;2.03;;;1.27;;
77724;SDS011;66892;53.236;6.550;2023-03-01T01:21:08;2.05;;;1.30;;
77724;SDS011;66892;53.236;6.550;2023-03-01T01:23:36;1.98;;;1.42;;
77724;SDS011;66892;53.236;6.550;2023-03-01T01:26:03;1.92;;;1.23;;
77724;SDS011;66892;53.236;6.550;2023-03-01T01:28:30;2.05;;;1.30;;
77724;SDS011;66892;53.236;6.550;2023-03-01T01:30:57;2.17;;;1.42;;
77724;SDS011;66892;53.236;6.550;2023-03-01T01:33:23;2.47;;;1.60;;
77724;SDS011;66892;53.236;6.550;2023-03-01T01:35:50;1.85;;;1.38;;
77724;SDS011;66892;53.236;6.550;2023-03-01T01:38:16;1.98;;;1.52;;
77724;SDS011;66892;53.236;6.550;2023-03-01T01:40:43;2.20;;;1.67;;
77724;SDS011;66892;53.236;6.550;2023-03-01T01:43:12;2.65;;;1.55;;
77724;SDS011;66892;53.236;6.550;2023-03-01T01:45:44;2.28;;;1.60;;
77724;SDS011;66892;53.236;6.550;2023-03-01T01:48:13;1.90;;;1.23;;
77724;SDS011;66892;53.236;6.550;2023-03-01T01:53:12;2.05;;;1.45;;
77724;SDS011;66892;53.236;6.550;2023-03-01T01:55:44;2.00;;;1.20;;
77724;SDS011;66892;53.236;6.550;2023-03-01T01:58:14;1.50;;;0.90;;
77724;SDS011;66892;53.236;6.550;2023-03-01T02:00:43;1.40;;;1.00;;
77724;SDS011;66892;53.236;6.550;2023-03-01T02:03:10;2.08;;;1.33;;
77724;SDS011;66892;53.236;6.550;2023-03-01T02:05:39;2.13;;;1.40;;
77724;SDS011;66892;53.236;6.550;2023-03-01T02:08:12;1.63;;;1.10;;
77724;SDS011;66892;53.236;6.550;2023-03-01T02:10:41;1.92;;;1.67;;
77724;SDS011;66892;53.236;6.550;2023-03-01T02:13:08;2.00;;;1.50;;
77724;SDS011;66892;53.236;6.550;2023-03-01T02:15:35;1.45;;;1.05;;
77724;SDS011;66892;53.236;6.550;2023-03-01T02:18:05;1.63;;;1.00;;
77724;SDS011;66892;53.236;6.550;2023-03-01T02:20:34;1.80;;;1.25;;
77724;SDS011;66892;53.236;6.550;2023-03-01T02:23:04;1.40;;;1.10;;
77724;SDS011;66892;53.236;6.550;2023-03-01T02:25:33;1.63;;;1.20;;
77724;SDS011;66892;53.236;6.550;2023-03-01T02:28:08;1.52;;;1.00;;
77724;SDS011;66892;53.236;6.550;2023-03-01T02:30:38;1.48;;;1.00;;
77724;SDS011;66892;53.236;6.550;2023-03-01T02:33:24;1.70;;;1.05;;
77724;SDS011;66892;53.236;6.550;2023-03-01T02:35:51;1.92;;;1.27;;
77724;SDS011;66892;53.236;6.550;2023-03-01T02:38:19;1.85;;;1.25;;
77724;SDS011;66892;53.236;6.550;2023-03-01T02:40:47;1.65;;;1.10;;
77724;SDS011;66892;53.236;6.550;2023-03-01T02:43:15;1.42;;;1.10;;
77724;SDS011;66892;53.236;6.550;2023-03-01T02:45:47;1.88;;;1.42;;
77724;SDS011;66892;53.236;6.550;2023-03-01T02:48:14;1.42;;;1.00;;
77724;SDS011;66892;53.236;6.550;2023-03-01T02:50:45;1.77;;;1.20;;
77724;SDS011;66892;53.236;6.550;2023-03-01T02:53:23;1.38;;;0.88;;
77724;SDS011;66892;53.236;6.550;2023-03-01T02:55:57;1.73;;;1.20;;
77724;SDS011;66892;53.236;6.550;2023-03-01T02:58:24;1.80;;;1.17;;
77724;SDS011;66892;53.236;6.550;2023-03-01T03:00:52;1.77;;;1.23;;
77724;SDS011;66892;53.236;6.550;2023-03-01T03:03:19;1.38;;;1.00;;
77724;SDS011;66892;53.236;6.550;2023-03-01T03:05:46;1.75;;;1.40;;
77724;SDS011;66892;53.236;6.550;2023-03-01T03:08:14;2.03;;;1.25;;
77724;SDS011;66892;53.236;6.550;2023-03-01T03:10:47;1.27;;;0.90;;
77724;SDS011;66892;53.236;6.550;2023-03-01T03:13:14;1.70;;;1.30;;
77724;SDS011;66892;53.236;6.550;2023-03-01T03:15:41;1.38;;;0.98;;
77724;SDS011;66892;53.236;6.550;2023-03-01T03:18:10;1.85;;;1.10;;
77724;SDS011;66892;53.236;6.550;2023-03-01T03:20:38;1.38;;;0.98;;
77724;SDS011;66892;53.236;6.550;2023-03-01T03:23:06;1.58;;;1.05;;
77724;SDS011;66892;53.236;6.550;2023-03-01T03:25:33;1.27;;;0.90;;
77724;SDS011;66892;53.236;6.550;2023-03-01T03:28:03;1.25;;;0.98;;
77724;SDS011;66892;53.236;6.550;2023-03-01T03:30:35;1.77;;;1.20;;
77724;SDS011;66892;53.236;6.550;2023-03-01T03:33:04;1.55;;;1.10;;
77724;SDS011;66892;53.236;6.550;2023-03-01T03:35:33;1.60;;;1.20;;
77724;SDS011;66892;53.236;6.550;2023-03-01T03:38:04;1.55;;;1.10;;
77724;SDS011;66892;53.236;6.550;2023-03-01T03:40:35;1.15;;;0.90;;
77724;SDS011;66892;53.236;6.550;2023-03-01T03:43:03;1.33;;;0.93;;
77724;SDS011;66892;53.236;6.550;2023-03-01T03:45:29;1.35;;;1.00;;
77724;SDS011;66892;53.236;6.550;2023-03-01T03:47:58;1.67;;;1.27;;
77724;SDS011;66892;53.236;6.550;2023-03-01T03:50:24;1.48;;;1.10;;
77724;SDS011;66892;53.236;6.550;2023-03-01T03:52:52;1.30;;;0.93;;
77724;SDS011;66892;53.236;6.550;2023-03-01T03:55:18;1.55;;;1.02;;
77724;SDS011;66892;53.236;6.550;2023-03-01T03:57:45;1.30;;;1.00;;
77724;SDS011;66892;53.236;6.550;2023-03-01T04:00:17;1.20;;;0.90;;
77724;SDS011;66892;53.236;6.550;2023-03-01T04:02:45;1.92;;;1.27;;
77724;SDS011;66892;53.236;6.550;2023-03-01T04:05:13;1.60;;;1.10;;
77724;SDS011;66892;53.236;6.550;2023-03-01T04:07:41;1.02;;;0.90;;
77724;SDS011;66892;53.236;6.550;2023-03-01T04:10:10;1.25;;;0.90;;
77724;SDS011;66892;53.236;6.550;2023-03-01T04:12:37;1.50;;;1.08;;
77724;SDS011;66892;53.236;6.550;2023-03-01T04:15:04;1.25;;;1.00;;
77724;SDS011;66892;53.236;6.550;2023-03-01T04:17:38;1.00;;;0.80;;
77724;SDS011;66892;53.236;6.550;2023-03-01T04:20:05;0.93;;;0.80;;
77724;SDS011;66892;53.236;6.550;2023-03-01T04:22:32;1.45;;;1.05;;
77724;SDS011;66892;53.236;6.550;2023-03-01T04:24:59;1.40;;;1.00;;
77724;SDS011;66892;53.236;6.550;2023-03-01T04:27:33;1.25;;;0.90;;
77724;SDS011;66892;53.236;6.550;2023-03-01T04:29:59;1.58;;;1.15;;
77724;SDS011;66892;53.236;6.550;2023-03-01T04:32:25;1.20;;;0.93;;
77724;SDS011;66892;53.236;6.550;2023-03-01T04:34:51;1.10;;;0.90;;
77724;SDS011;66892;53.236;6.550;2023-03-01T04:37:17;0.98;;;0.80;;
77724;SDS011;66892;53.236;6.550;2023-03-01T04:39:43;1.17;;;0.90;;
77724;SDS011;66892;53.236;6.550;2023-03-01T04:42:13;1.10;;;0.90;;
77724;SDS011;66892;53.236;6.550;2023-03-01T04:44:40;1.63;;;1.10;;
77724;SDS011;66892;53.236;6.550;2023-03-01T04:47:06;1.05;;;0.88;;
77724;SDS011;66892;53.236;6.550;2023-03-01T04:49:32;1.00;;;0.80;;
77724;SDS011;66892;53.236;6.550;2023-03-01T04:51:58;1.50;;;1.00;;
77724;SDS011;66892;53.236;6.550;2023-03-01T04:54:27;1.42;;;1.10;;
77724;SDS011;66892;53.236;6.550;2023-03-01T04:56:53;1.40;;;1.02;;
77724;SDS011;66892;53.236;6.550;2023-03-01T04:59:19;1.25;;;0.98;;
77724;SDS011;66892;53.236;6.550;2023-03-01T05:01:49;1.55;;;1.08;;
77724;SDS011;66892;53.236;6.550;2023-03-01T05:04:15;1.33;;;1.15;;
77724;SDS011;66892;53.236;6.550;2023-03-01T05:06:41;1.45;;;1.00;;
77724;SDS011;66892;53.236;6.550;2023-03-01T05:09:07;1.30;;;1.17;;
77724;SDS011;66892;53.236;6.550;2023-03-01T05:11:33;1.92;;;1.30;;
77724;SDS011;66892;53.236;6.550;2023-03-01T05:14:01;1.33;;;0.93;;
77724;SDS011;66892;53.236;6.550;2023-03-01T05:16:27;1.58;;;1.10;;
77724;SDS011;66892;53.236;6.550;2023-03-01T05:18:54;1.30;;;1.00;;
77724;SDS011;66892;53.236;6.550;2023-03-01T05:21:21;1.33;;;1.00;;
77724;SDS011;66892;53.236;6.550;2023-03-01T05:23:47;1.25;;;0.90;;
77724;SDS011;66892;53.236;6.550;2023-03-01T05:26:13;1.52;;;1.15;;
77724;SDS011;66892;53.236;6.550;2023-03-01T05:28:40;1.33;;;1.00;;
77724;SDS011;66892;53.236;6.550;2023-03-01T05:31:06;1.75;;;1.20;;
77724;SDS011;66892;53.236;6.550;2023-03-01T05:33:35;1.77;;;1.52;;
77724;SDS011;66892;53.236;6.550;2023-03-01T05:36:03;1.10;;;0.90;;
77724;SDS011;66892;53.236;6.550;2023-03-01T05:38:30;1.30;;;1.00;;
77724;SDS011;66892;53.236;6.550;2023-03-01T05:40:56;1.38;;;1.00;;
77724;SDS011;66892;53.236;6.550;2023-03-01T05:43:22;1.60;;;1.10;;
77724;SDS011;66892;53.236;6.550;2023-03-01T05:45:48;1.42;;;0.93;;
77724;SDS011;66892;53.236;6.550;2023-03-01T05:48:14;1.52;;;1.08;;
77724;SDS011;66892;53.236;6.550;2023-03-01T05:50:41;1.70;;;1.13;;
77724;SDS011;66892;53.236;6.550;2023-03-01T05:53:10;1.50;;;1.10;;
77724;SDS011;66892;53.236;6.550;2023-03-01T05:55:39;1.25;;;0.98;;
77724;SDS011;66892;53.236;6.550;2023-03-01T05:58:05;1.40;;;1.00;;
77724;SDS011;66892;53.236;6.550;2023-03-01T06:00:33;1.17;;;0.93;;
77724;SDS011;66892;53.236;6.550;2023-03-01T06:02:59;1.55;;;1.20;;
77724;SDS011;66892;53.236;6.550;2023-03-01T06:05:26;1.50;;;1.23;;
77724;SDS011;66892;53.236;6.550;2023-03-01T06:07:53;1.85;;;1.15;;
77724;SDS011;66892;53.236;6.550;2023-03-01T06:10:21;1.60;;;1.08;;
77724;SDS011;66892;53.236;6.550;2023-03-01T06:12:47;1.67;;;1.20;;
77724;SDS011;66892;53.236;6.550;2023-03-01T06:15:15;1.92;;;1.27;;
77724;SDS011;66892;53.236;6.550;2023-03-01T06:17:42;1.85;;;1.25;;
77724;SDS011;66892;53.236;6.550;2023-03-01T06:20:10;1.98;;;1.40;;
77724;SDS011;66892;53.236;6.550;2023-03-01T06:22:39;1.98;;;1.30;;
77724;SDS011;66892;53.236;6.550;2023-03-01T06:25:06;1.40;;;1.00;;
77724;SDS011;66892;53.236;6.550;2023-03-01T06:27:35;1.30;;;1.00;;
77724;SDS011;66892;53.236;6.550;2023-03-01T06:30:01;1.60;;;0.98;;
77724;SDS011;66892;53.236;6.550;2023-03-01T06:32:28;1.58;;;1.10;;
77724;SDS011;66892;53.236;6.550;2023-03-01T06:34:53;1.38;;;1.08;;
77724;SDS011;66892;53.236;6.550;2023-03-01T06:37:19;1.45;;;1.00;;
77724;SDS011;66892;53.236;6.550;2023-03-01T06:39:46;1.63;;;1.05;;
77724;SDS011;66892;53.236;6.550;2023-03-01T06:42:11;1.65;;;1.20;;
77724;SDS011;66892;53.236;6.550;2023-03-01T06:44:39;2.10;;;1.40;;
77724;SDS011;66892;53.236;6.550;2023-03-01T06:47:05;1.33;;;0.95;;
77724;SDS011;66892;53.236;6.550;2023-03-01T06:49:31;1.02;;;0.82;;
77724;SDS011;66892;53.236;6.550;2023-03-01T06:51:57;2.05;;;1.38;;
77724;SDS011;66892;53.236;6.550;2023-03-01T06:54:23;1.60;;;1.10;;
77724;SDS011;66892;53.236;6.550;2023-03-01T06:56:49;2.25;;;1.50;;
77724;SDS011;66892;53.236;6.550;2023-03-01T06:59:16;2.33;;;1.48;;
77724;SDS011;66892;53.236;6.550;2023-03-01T07:01:44;2.08;;;1.30;;
77724;SDS011;66892;53.236;6.550;2023-03-01T07:04:10;1.75;;;1.20;;
77724;SDS011;66892;53.236;6.550;2023-03-01T07:06:36;1.75;;;1.30;;
77724;SDS011;66892;53.236;6.550;2023-03-01T07:09:02;1.70;;;1.20;;
77724;SDS011;66892;53.236;6.550;2023-03-01T07:11:28;1.65;;;1.10;;
77724;SDS011;66892;53.236;6.550;2023-03-01T07:13:54;1.88;;;1.35;;
77724;SDS011;66892;53.236;6.550;2023-03-01T07:16:21;1.67;;;1.02;;
77724;SDS011;66892;53.236;6.550;2023-03-01T07:18:49;1.60;;;1.25;;
77724;SDS011;66892;53.236;6.550;2023-03-01T07:21:15;1.27;;;0.98;;
77724;SDS011;66892;53.236;6.550;2023-03-01T07:23:42;2.03;;;1.33;;
77724;SDS011;66892;53.236;6.550;2023-03-01T07:26:08;2.28;;;2.00;;
77724;SDS011;66892;53.236;6.550;2023-03-01T07:28:34;1.77;;;1.27;;
77724;SDS011;66892;53.236;6.550;2023-03-01T07:31:01;2.22;;;1.35;;
77724;SDS011;66892;53.236;6.550;2023-03-01T07:33:27;1.65;;;1.10;;
77724;SDS011;66892;53.236;6.550;2023-03-01T07:35:58;2.05;;;1.40;;
77724;SDS011;66892;53.236;6.550;2023-03-01T07:38:25;2.13;;;1.50;;
77724;SDS011;66892;53.236;6.550;2023-03-01T07:40:52;2.25;;;1.50;;
77724;SDS011;66892;53.236;6.550;2023-03-01T07:43:18;1.70;;;1.10;;
77724;SDS011;66892;53.236;6.550;2023-03-01T07:45:46;2.38;;;1.48;;
77724;SDS011;66892;53.236;6.550;2023-03-01T07:48:12;1.73;;;1.20;;
77724;SDS011;66892;53.236;6.550;2023-03-01T07:50:38;1.55;;;1.08;;
77724;SDS011;66892;53.236;6.550;2023-03-01T07:53:05;1.92;;;1.23;;
77724;SDS011;66892;53.236;6.550;2023-03-01T07:55:31;2.38;;;1.27;;
77724;SDS011;66892;53.236;6.550;2023-03-01T07:57:57;2.00;;;1.50;;
77724;SDS011;66892;53.236;6.550;2023-03-01T08:00:23;2.25;;;1.50;;
77724;SDS011;66892;53.236;6.550;2023-03-01T08:02:49;1.85;;;1.35;;
77724;SDS011;66892;53.236;6.550;2023-03-01T08:05:15;2.42;;;1.48;;
77724;SDS011;66892;53.236;6.550;2023-03-01T08:07:42;2.13;;;1.33;;
77724;SDS011;66892;53.236;6.550;2023-03-01T08:10:10;2.30;;;1.45;;
77724;SDS011;66892;53.236;6.550;2023-03-01T08:12:36;2.50;;;1.60;;
77724;SDS011;66892;53.236;6.550;2023-03-01T08:15:03;2.53;;;1.48;;
77724;SDS011;66892;53.236;6.550;2023-03-01T08:17:29;2.50;;;1.50;;
77724;SDS011;66892;53.236;6.550;2023-03-01T08:19:55;2.50;;;1.67;;
77724;SDS011;66892;53.236;6.550;2023-03-01T08:22:21;2.45;;;1.52;;
77724;SDS011;66892;53.236;6.550;2023-03-01T08:24:49;2.67;;;1.65;;
77724;SDS011;66892;53.236;6.550;2023-03-01T08:27:17;2.60;;;1.65;;
77724;SDS011;66892;53.236;6.550;2023-03-01T08:29:43;2.53;;;1.70;;
77724;SDS011;66892;53.236;6.550;2023-03-01T08:32:09;2.75;;;1.85;;
77724;SDS011;66892;53.236;6.550;2023-03-01T08:34:35;2.70;;;2.00;;
77724;SDS011;66892;53.236;6.550;2023-03-01T08:37:01;2.80;;;1.80;;
77724;SDS011;66892;53.236;6.550;2023-03-01T08:39:27;2.83;;;1.90;;
77724;SDS011;66892;53.236;6.550;2023-03-01T08:41:53;3.00;;;2.20;;
77724;SDS011;66892;53.236;6.550;2023-03-01T08:44:21;3.13;;;2.35;;
77724;SDS011;66892;53.236;6.550;2023-03-01T08:46:47;2.85;;;1.85;;
77724;SDS011;66892;53.236;6.550;2023-03-01T08:49:16;3.10;;;2.10;;
77724;SDS011;66892;53.236;6.550;2023-03-01T08:51:44;3.50;;;2.30;;
77724;SDS011;66892;53.236;6.550;2023-03-01T08:54:12;3.10;;;2.13;;
77724;SDS011;66892;53.236;6.550;2023-03-01T08:56:40;3.33;;;2.42;;
77724;SDS011;66892;53.236;6.550;2023-03-01T08:59:06;3.03;;;2.30;;
77724;SDS011;66892;53.236;6.550;2023-03-01T09:01:34;3.50;;;2.60;;
77724;SDS011;66892;53.236;6.550;2023-03-01T09:04:00;3.30;;;2.78;;
77724;SDS011;66892;53.236;6.550;2023-03-01T09:06:26;3.38;;;2.50;;
77724;SDS011;66892;53.236;6.550;2023-03-01T09:08:52;2.97;;;2.20;;
77724;SDS011;66892;53.236;6.550;2023-03-01T09:11:19;3.30;;;2.17;;
77724;SDS011;66892;53.236;6.550;2023-03-01T09:13:47;3.03;;;1.92;;
77724;SDS011;66892;53.236;6.550;2023-03-01T09:16:14;2.80;;;2.10;;
77724;SDS011;66892;53.236;6.550;2023-03-01T09:18:44;2.95;;;2.20;;
77724;SDS011;66892;53.236;6.550;2023-03-01T09:21:15;2.65;;;1.83;;
77724;SDS011;66892;53.236;6.550;2023-03-01T09:23:42;2.90;;;1.70;;
77724;SDS011;66892;53.236;6.550;2023-03-01T09:26:10;3.17;;;2.10;;
77724;SDS011;66892;53.236;6.550;2023-03-01T09:28:38;2.80;;;2.40;;
77724;SDS011;66892;53.236;6.550;2023-03-01T09:31:06;2.42;;;1.55;;
77724;SDS011;66892;53.236;6.550;2023-03-01T09:33:32;2.28;;;1.42;;
77724;SDS011;66892;53.236;6.550;2023-03-01T09:36:01;2.33;;;1.60;;
77724;SDS011;66892;53.236;6.550;2023-03-01T09:38:29;2.72;;;1.80;;
77724;SDS011;66892;53.236;6.550;2023-03-01T09:40:55;3.05;;;1.65;;
77724;SDS011;66892;53.236;6.550;2023-03-01T09:43:23;2.70;;;1.65;;
77724;SDS011;66892;53.236;6.550;2023-03-01T09:45:56;2.35;;;1.60;;
77724;SDS011;66892;53.236;6.550;2023-03-01T09:48:29;2.58;;;1.95;;
77724;SDS011;66892;53.236;6.550;2023-03-01T09:51:00;2.50;;;1.55;;
77724;SDS011;66892;53.236;6.550;2023-03-01T09:53:30;2.03;;;1.40;;
77724;SDS011;66892;53.236;6.550;2023-03-01T09:56:02;2.90;;;1.70;;
77724;SDS011;66892;53.236;6.550;2023-03-01T09:58:33;2.30;;;1.52;;
77724;SDS011;66892;53.236;6.550;2023-03-01T10:01:10;2.30;;;1.50;;
77724;SDS011;66892;53.236;6.550;2023-03-01T10:03:58;2.38;;;1.40;;
77724;SDS011;66892;53.236;6.550;2023-03-01T10:06:33;2.35;;;1.50;;
77724;SDS011;66892;53.236;6.550;2023-03-01T10:09:00;2.00;;;1.30;;
77724;SDS011;66892;53.236;6.550;2023-03-01T10:11:32;2.10;;;1.35;;
77724;SDS011;66892;53.236;6.550;2023-03-01T10:14:01;2.10;;;1.33;;
77724;SDS011;66892;53.236;6.550;2023-03-01T10:16:34;2.35;;;1.50;;
77724;SDS011;66892;53.236;6.550;2023-03-01T10:19:09;2.28;;;1.52;;
77724;SDS011;66892;53.236;6.550;2023-03-01T10:21:42;2.63;;;1.60;;
77724;SDS011;66892;53.236;6.550;2023-03-01T10:24:12;2.42;;;1.50;;
77724;SDS011;66892;53.236;6.550;2023-03-01T10:26:43;2.35;;;1.42;;
77724;SDS011;66892;53.236;6.550;2023-03-01T10:29:17;2.60;;;1.52;;
77724;SDS011;66892;53.236;6.550;2023-03-01T10:31:50;2.25;;;1.50;;
77724;SDS011;66892;53.236;6.550;2023-03-01T10:34:18;2.10;;;1.50;;
77724;SDS011;66892;53.236;6.550;2023-03-01T10:36:49;1.98;;;1.40;;
77724;SDS011;66892;53.236;6.550;2023-03-01T10:39:17;1.90;;;1.30;;
77724;SDS011;66892;53.236;6.550;2023-03-01T10:41:55;2.50;;;1.40;;
77724;SDS011;66892;53.236;6.550;2023-03-01T10:44:40;2.05;;;1.30;;
77724;SDS011;66892;53.236;6.550;2023-03-01T10:47:13;2.15;;;1.35;;
77724;SDS011;66892;53.236;6.550;2023-03-01T10:49:51;2.40;;;1.52;;
77724;SDS011;66892;53.236;6.550;2023-03-01T10:52:29;2.45;;;1.52;;
77724;SDS011;66892;53.236;6.550;2023-03-01T10:54:58;2.28;;;1.30;;
77724;SDS011;66892;53.236;6.550;2023-03-01T10:57:30;2.30;;;1.33;;
77724;SDS011;66892;53.236;6.550;2023-03-01T11:00:13;1.88;;;1.25;;
77724;SDS011;66892;53.236;6.550;2023-03-01T11:02:47;2.28;;;1.30;;
77724;SDS011;66892;53.236;6.550;2023-03-01T11:05:17;1.90;;;1.40;;
77724;SDS011;66892;53.236;6.550;2023-03-01T11:07:50;1.90;;;1.20;;
77724;SDS011;66892;53.236;6.550;2023-03-01T11:10:19;1.70;;;1.10;;
77724;SDS011;66892;53.236;6.550;2023-03-01T11:12:46;1.70;;;1.30;;
77724;SDS011;66892;53.236;6.550;2023-03-01T11:15:19;1.75;;;1.20;;
77724;SDS011;66892;53.236;6.550;2023-03-01T11:17:48;1.60;;;1.08;;
77724;SDS011;66892;53.236;6.550;2023-03-01T11:20:17;1.98;;;1.30;;
77724;SDS011;66892;53.236;6.550;2023-03-01T11:22:52;1.95;;;1.27;;
77724;SDS011;66892;53.236;6.550;2023-03-01T11:25:21;1.98;;;1.13;;
77724;SDS011;66892;53.236;6.550;2023-03-01T11:27:50;2.05;;;1.48;;
77724;SDS011;66892;53.236;6.550;2023-03-01T11:30:20;2.13;;;1.20;;
77724;SDS011;66892;53.236;6.550;2023-03-01T11:32:50;1.42;;;0.90;;
77724;SDS011;66892;53.236;6.550;2023-03-01T11:35:26;1.92;;;1.25;;
77724;SDS011;66892;53.236;6.550;2023-03-01T11:37:58;1.88;;;1.27;;
77724;SDS011;66892;53.236;6.550;2023-03-01T11:40:32;1.77;;;1.20;;
77724;SDS011;66892;53.236;6.550;2023-03-01T11:43:05;1.90;;;1.13;;
77724;SDS011;66892;53.236;6.550;2023-03-01T11:45:43;1.85;;;1.13;;
77724;SDS011;66892;53.236;6.550;2023-03-01T11:48:29;1.63;;;1.25;;
77724;SDS011;66892;53.236;6.550;2023-03-01T11:51:09;1.55;;;1.05;;
77724;SDS011;66892;53.236;6.550;2023-03-01T11:53:53;1.77;;;1.23;;
77724;SDS011;66892;53.236;6.550;2023-03-01T11:56:28;2.00;;;1.67;;
77724;SDS011;66892;53.236;6.550;2023-03-01T11:59:07;1.70;;;1.20;;
77724;SDS011;66892;53.236;6.550;2023-03-01T12:02:16;1.20;;;0.95;;
77724;SDS011;66892;53.236;6.550;2023-03-01T12:05:07;1.08;;;0.90;;
77724;SDS011;66892;53.236;6.550;2023-03-01T12:07:45;1.10;;;0.80;;
77724;SDS011;66892;53.236;6.550;2023-03-01T12:10:23;1.02;;;0.85;;
77724;SDS011;66892;53.236;6.550;2023-03-01T12:16:09;1.25;;;0.80;;
77724;SDS011;66892;53.236;6.550;2023-03-01T12:18:47;1.40;;;0.90;;
77724;SDS011;66892;53.236;6.550;2023-03-01T12:21:30;1.65;;;1.10;;
77724;SDS011;66892;53.236;6.550;2023-03-01T12:24:20;1.38;;;0.95;;
77724;SDS011;66892;53.236;6.550;2023-03-01T12:27:15;1.65;;;1.00;;
77724;SDS011;66892;53.236;6.550;2023-03-01T12:29:57;1.88;;;1.20;;
77724;SDS011;66892;53.236;6.550;2023-03-01T12:32:34;1.88;;;1.08;;
77724;SDS011;66892;53.236;6.550;2023-03-01T12:37:59;2.72;;;1.10;;
77724;SDS011;66892;53.236;6.550;2023-03-01T12:40:38;1.50;;;1.00;;
77724;SDS011;66892;53.236;6.550;2023-03-01T12:43:17;1.42;;;1.00;;
77724;SDS011;66892;53.236;6.550;2023-03-01T12:46:03;1.40;;;0.90;;
77724;SDS011;66892;53.236;6.550;2023-03-01T12:48:39;1.73;;;1.00;;
77724;SDS011;66892;53.236;6.550;2023-03-01T12:51:11;1.45;;;0.95;;
77724;SDS011;66892;53.236;6.550;2023-03-01T12:53:40;1.48;;;0.93;;
77724;SDS011;66892;53.236;6.550;2023-03-01T12:56:10;1.75;;;1.08;;
77724;SDS011;66892;53.236;6.550;2023-03-01T12:58:41;1.33;;;0.90;;
77724;SDS011;66892;53.236;6.550;2023-03-01T13:01:19;1.58;;;1.00;;
77724;SDS011;66892;53.236;6.550;2023-03-01T13:04:08;1.38;;;1.00;;
77724;SDS011;66892;53.236;6.550;2023-03-01T13:06:44;1.80;;;1.10;;
77724;SDS011;66892;53.236;6.550;2023-03-01T13:09:22;1.60;;;1.00;;
77724;SDS011;66892;53.236;6.550;2023-03-01T13:11:56;2.28;;;0.90;;
77724;SDS011;66892;53.236;6.550;2023-03-01T13:14:36;1.30;;;0.90;;
77724;SDS011;66892;53.236;6.550;2023-03-01T13:17:03;1.75;;;1.00;;
77724;SDS011;66892;53.236;6.550;2023-03-01T13:19:29;1.45;;;1.20;;
77724;SDS011;66892;53.236;6.550;2023-03-01T13:21:56;1.42;;;1.15;;
77724;SDS011;66892;53.236;6.550;2023-03-01T13:24:26;2.33;;;0.90;;
77724;SDS011;66892;53.236;6.550;2023-03-01T13:27:10;1.48;;;0.90;;
77724;SDS011;66892;53.236;6.550;2023-03-01T13:29:47;1.52;;;1.05;;
77724;SDS011;66892;53.236;6.550;2023-03-01T13:32:18;1.55;;;1.02;;
77724;SDS011;66892;53.236;6.550;2023-03-01T13:34:50;1.55;;;1.05;;
77724;SDS011;66892;53.236;6.550;2023-03-01T13:37:19;1.70;;;1.10;;
77724;SDS011;66892;53.236;6.550;2023-03-01T13:39:46;1.55;;;1.13;;
77724;SDS011;66892;53.236;6.550;2023-03-01T13:42:33;1.60;;;1.05;;
77724;SDS011;66892;53.236;6.550;2023-03-01T13:45:05;1.30;;;0.98;;
77724;SDS011;66892;53.236;6.550;2023-03-01T13:47:41;1.63;;;0.93;;
77724;SDS011;66892;53.236;6.550;2023-03-01T13:50:15;1.65;;;1.20;;
77724;SDS011;66892;53.236;6.550;2023-03-01T13:52:45;1.65;;;1.13;;
77724;SDS011;66892;53.236;6.550;2023-03-01T13:55:16;1.58;;;1.17;;
77724;SDS011;66892;53.236;6.550;2023-03-01T13:57:46;1.33;;;1.00;;
77724;SDS011;66892;53.236;6.550;2023-03-01T14:00:27;1.13;;;0.80;;
77724;SDS011;66892;53.236;6.550;2023-03-01T14:03:00;1.10;;;0.80;;
77724;SDS011;66892;53.236;6.550;2023-03-01T14:05:27;1.73;;;1.00;;
77724;SDS011;66892;53.236;6.550;2023-03-01T14:07:54;1.27;;;0.90;;
77724;SDS011;66892;53.236;6.550;2023-03-01T14:10:20;1.17;;;0.90;;
77724;SDS011;66892;53.236;6.550;2023-03-01T14:12:47;1.23;;;0.85;;
77724;SDS011;66892;53.236;6.550;2023-03-01T14:17:52;1.45;;;1.00;;
77724;SDS011;66892;53.236;6.550;2023-03-01T14:20:24;1.00;;;0.77;;
77724;SDS011;66892;53.236;6.550;2023-03-01T14:22:53;1.40;;;1.02;;
77724;SDS011;66892;53.236;6.550;2023-03-01T14:25:22;1.52;;;1.05;;
77724;SDS011;66892;53.236;6.550;2023-03-01T14:27:52;1.90;;;1.25;;
77724;SDS011;66892;53.236;6.550;2023-03-01T14:30:21;1.27;;;1.08;;
77724;SDS011;66892;53.236;6.550;2023-03-01T14:32:55;1.55;;;1.02;;
77724;SDS011;66892;53.236;6.550;2023-03-01T14:35:23;1.35;;;1.00;;
77724;SDS011;66892;53.236;6.550;2023-03-01T14:37:51;1.48;;;0.90;;
77724;SDS011;66892;53.236;6.550;2023-03-01T14:40:22;1.35;;;0.82;;
77724;SDS011;66892;53.236;6.550;2023-03-01T14:42:51;1.55;;;0.95;;
77724;SDS011;66892;53.236;6.550;2023-03-01T14:45:18;1.70;;;1.10;;
77724;SDS011;66892;53.236;6.550;2023-03-01T14:47:45;1.55;;;1.05;;
77724;SDS011;66892;53.236;6.550;2023-03-01T14:50:21;1.33;;;0.93;;
77724;SDS011;66892;53.236;6.550;2023-03-01T14:52:50;1.40;;;1.00;;
77724;SDS011;66892;53.236;6.550;2023-03-01T14:55:19;1.40;;;0.90;;
77724;SDS011;66892;53.236;6.550;2023-03-01T14:57:47;1.70;;;1.10;;
77724;SDS011;66892;53.236;6.550;2023-03-01T15:00:16;1.55;;;1.05;;
77724;SDS011;66892;53.236;6.550;2023-03-01T15:02:45;1.30;;;1.00;;
77724;SDS011;66892;53.236;6.550;2023-03-01T15:05:13;2.25;;;1.23;;
77724;SDS011;66892;53.236;6.550;2023-03-01T15:07:43;1.52;;;1.00;;
77724;SDS011;66892;53.236;6.550;2023-03-01T15:10:16;1.98;;;1.50;;
77724;SDS011;66892;53.236;6.550;2023-03-01T15:12:46;1.58;;;1.13;;